createdAt,value
2018-09-01T00:04:26.307Z,60422.27
2018-09-01T00:06:54.874Z,60438.53
2018-09-01T00:09:23.080Z,60417.20
2018-09-01T00:11:51.259Z,60407.03
2018-09-01T00:14:19.429Z,60401.95
2018-09-01T00:16:47.591Z,60419.23
2018-09-01T00:19:15.774Z,60430.40
2018-09-01T00:21:43.963Z,60428.37
2018-09-01T00:24:12.390Z,60414.14
2018-09-01T00:26:42.430Z,60428.37
2018-09-01T00:29:10.710Z,60412.11
2018-09-01T00:31:38.882Z,60424.31
2018-09-01T00:34:07.460Z,60422.27
2018-09-01T00:36:35.927Z,60406.02
2018-09-01T00:39:06.258Z,60412.11
2018-09-01T00:41:35.060Z,60425.32
2018-09-01T00:44:03.371Z,60439.55
2018-09-01T00:46:32.012Z,60431.42
2018-09-01T00:49:00.224Z,60397.89
2018-09-01T00:51:28.406Z,60440.57
2018-09-01T00:53:56.562Z,60447.68
2018-09-01T00:56:24.760Z,60439.55
2018-09-01T00:58:52.939Z,60428.37
2018-09-01T01:01:21.105Z,60442.60
2018-09-01T01:03:49.291Z,60432.44
2018-09-01T01:06:17.464Z,60453.78
2018-09-01T01:08:45.634Z,60418.21
2018-09-01T01:11:13.875Z,60410.08
2018-09-01T01:13:42.039Z,60446.66
2018-09-01T01:16:10.219Z,60429.39
2018-09-01T01:18:38.432Z,60428.37
2018-09-01T01:21:06.608Z,60423.29
2018-09-01T01:23:34.834Z,60458.86
2018-09-01T01:26:03.048Z,60456.82
2018-09-01T01:28:31.215Z,60441.58
2018-09-01T01:30:59.413Z,60438.53
2018-09-01T01:33:27.610Z,60439.55
2018-09-01T01:35:55.796Z,60425.32
2018-09-01T01:38:23.959Z,60422.27
2018-09-01T01:40:52.148Z,60443.61
2018-09-01T01:43:20.330Z,60426.34
2018-09-01T01:45:48.508Z,60448.70
2018-09-01T01:48:16.690Z,60432.44
2018-09-01T01:50:44.864Z,60449.71
2018-09-01T01:53:13.035Z,60429.39
2018-09-01T01:55:41.211Z,60447.68
2018-09-01T01:58:09.378Z,60448.70
2018-09-01T02:00:37.564Z,60430.40
2018-09-01T02:03:05.955Z,60442.60
2018-09-01T02:05:36.089Z,60462.92
2018-09-01T02:08:04.695Z,60448.70
2018-09-01T02:10:32.892Z,60460.89
2018-09-01T02:13:01.053Z,60437.52
2018-09-01T02:15:29.256Z,60434.47
2018-09-01T02:17:57.514Z,60439.55
2018-09-01T02:20:25.722Z,60448.70
2018-09-01T02:22:53.899Z,60416.18
2018-09-01T02:25:22.103Z,60459.87
2018-09-01T02:27:50.269Z,60452.76
2018-09-01T02:30:18.455Z,60449.71
2018-09-01T02:32:46.666Z,60437.52
2018-09-01T02:35:14.827Z,60452.76
2018-09-01T02:37:43.009Z,60439.55
2018-09-01T02:40:11.223Z,60441.58
2018-09-01T02:42:39.457Z,60444.63
2018-09-01T02:45:07.672Z,60424.31
2018-09-01T02:47:35.895Z,60473.09
2018-09-01T02:50:04.101Z,60440.57
2018-09-01T02:52:32.278Z,60446.66
2018-09-01T02:55:00.494Z,60464.96
2018-09-01T02:57:28.655Z,60464.96
2018-09-01T02:59:56.843Z,60477.15
2018-09-01T03:02:30.421Z,60455.81
2018-09-01T03:04:58.587Z,60451.75
2018-09-01T03:07:26.815Z,60443.61
2018-09-01T03:09:55.003Z,60448.70
2018-09-01T03:12:23.179Z,60453.78
2018-09-01T03:14:51.352Z,60477.15
2018-09-01T03:17:19.531Z,60446.66
2018-09-01T03:19:47.761Z,60473.09
2018-09-01T03:22:15.931Z,60476.13
2018-09-01T03:24:44.142Z,60488.33
2018-09-01T03:27:12.340Z,60455.81
2018-09-01T03:29:40.508Z,60454.79
2018-09-01T03:32:08.698Z,60470.04
2018-09-01T03:34:36.873Z,60446.66
2018-09-01T03:37:05.120Z,60444.63
2018-09-01T03:39:33.306Z,60442.60
2018-09-01T03:42:01.484Z,60457.84
2018-09-01T03:44:29.663Z,60471.05
2018-09-01T03:46:57.864Z,60457.84
2018-09-01T03:49:26.059Z,60456.82
2018-09-01T03:51:54.239Z,60461.91
2018-09-01T03:54:22.418Z,60455.81
2018-09-01T03:56:50.589Z,60443.61
2018-09-01T03:59:18.776Z,60465.97
2018-09-01T04:01:46.960Z,60464.96
2018-09-01T04:04:15.152Z,60476.13
2018-09-01T04:06:43.322Z,60466.99
2018-09-01T04:09:11.514Z,60482.23
2018-09-01T04:11:39.676Z,60464.96
2018-09-01T04:14:07.859Z,60463.94
2018-09-01T04:16:36.085Z,60443.61
2018-09-01T04:19:08.543Z,60459.87
2018-09-01T04:21:36.745Z,60459.87
2018-09-01T04:24:04.961Z,60452.76
2018-09-01T04:26:33.163Z,60473.09
2018-09-01T04:29:01.371Z,60451.75
2018-09-01T04:31:29.568Z,60461.91
2018-09-01T04:33:57.749Z,60466.99
2018-09-01T04:36:26.141Z,60459.87
2018-09-01T04:38:54.323Z,60480.20
2018-09-01T04:41:22.515Z,60471.05
2018-09-01T04:43:50.735Z,60475.12
2018-09-01T04:46:18.906Z,60490.36
2018-09-01T04:48:47.189Z,60461.91
2018-09-01T04:51:15.393Z,60459.87
2018-09-01T04:53:43.555Z,60435.48
2018-09-01T04:56:11.735Z,60461.91
2018-09-01T04:58:39.975Z,60468.00
2018-09-01T05:01:08.286Z,60458.86
2018-09-01T05:03:36.355Z,60458.86
2018-09-01T05:06:04.526Z,60490.36
2018-09-01T05:08:32.709Z,60492.39
2018-09-01T05:11:00.901Z,60484.26
2018-09-01T05:13:29.091Z,60450.73
2018-09-01T05:15:57.283Z,60459.87
2018-09-01T05:18:25.848Z,60436.50
2018-09-01T05:20:54.062Z,60459.87
2018-09-01T05:23:22.321Z,60460.89
2018-09-01T05:25:50.506Z,60480.20
2018-09-01T05:28:18.723Z,60488.33
2018-09-01T05:30:46.912Z,60450.73
2018-09-01T05:33:15.190Z,60456.82
2018-09-01T05:35:43.371Z,60473.09
2018-09-01T05:38:11.641Z,60464.96
2018-09-01T05:40:39.836Z,60487.31
2018-09-01T05:43:08.051Z,60459.87
2018-09-01T05:45:36.239Z,60446.66
2018-09-01T05:48:04.494Z,60452.76
2018-09-01T05:50:32.736Z,60482.23
2018-09-01T05:53:00.915Z,60468.00
2018-09-01T05:55:29.140Z,60452.76
2018-09-01T05:57:57.346Z,60507.64
2018-09-01T06:00:25.612Z,60462.92
2018-09-01T06:02:54.267Z,60494.43
2018-09-01T06:05:22.579Z,60481.21
2018-09-01T06:07:50.806Z,60468.00
2018-09-01T06:10:18.993Z,60460.89
2018-09-01T06:12:47.175Z,60474.10
2018-09-01T06:15:15.347Z,60448.70
2018-09-01T06:17:43.644Z,60473.09
2018-09-01T06:20:11.705Z,60450.73
2018-09-01T06:22:39.882Z,60469.02
2018-09-01T06:25:08.132Z,60472.07
2018-09-01T06:27:40.851Z,60461.91
2018-09-01T06:30:13.309Z,60468.00
2018-09-01T06:32:41.426Z,60459.87
2018-09-01T06:35:09.848Z,60481.21
2018-09-01T06:37:38.024Z,60468.00
2018-09-01T06:40:06.573Z,60450.73
2018-09-01T06:42:34.886Z,60473.09
2018-09-01T06:45:03.127Z,60471.05
2018-09-01T06:47:31.340Z,60461.91
2018-09-01T06:49:59.522Z,60473.09
2018-09-01T06:52:27.697Z,60485.28
2018-09-01T06:54:55.883Z,60452.76
2018-09-01T06:57:24.052Z,60473.09
2018-09-01T06:59:52.222Z,60458.86
2018-09-01T07:02:20.420Z,60457.84
2018-09-01T07:04:48.649Z,60442.60
2018-09-01T07:07:16.895Z,60465.97
2018-09-01T07:09:45.120Z,60443.61
2018-09-01T07:12:13.331Z,60468.00
2018-09-01T07:14:41.655Z,60454.79
2018-09-01T07:17:09.872Z,60433.45
2018-09-01T07:19:38.077Z,60461.91
2018-09-01T07:22:06.536Z,60475.12
2018-09-01T07:24:34.723Z,60454.79
2018-09-01T07:27:02.903Z,60447.68
2018-09-01T07:29:31.111Z,60449.71
2018-09-01T07:31:59.293Z,60474.10
2018-09-01T07:34:27.472Z,60460.89
2018-09-01T07:36:55.656Z,60449.71
2018-09-01T07:39:23.842Z,60438.53
2018-09-01T07:41:52.013Z,60433.45
2018-09-01T07:44:20.203Z,60444.63
2018-09-01T07:46:48.382Z,60431.42
2018-09-01T07:49:16.977Z,60433.45
2018-09-01T07:51:45.154Z,60441.58
2018-09-01T07:54:13.340Z,60439.55
2018-09-01T07:56:41.521Z,60444.63
2018-09-01T07:59:09.799Z,60447.68
2018-09-01T08:01:37.983Z,60428.37
2018-09-01T08:04:06.216Z,60452.76
2018-09-01T08:06:34.405Z,60431.42
2018-09-01T08:09:02.599Z,60422.27
2018-09-01T08:11:30.759Z,60449.71
2018-09-01T08:13:59.043Z,60450.73
2018-09-01T08:16:27.109Z,60432.44
2018-09-01T08:18:55.350Z,60425.32
2018-09-01T08:21:23.547Z,60419.23
2018-09-01T08:23:51.729Z,60429.39
2018-09-01T08:26:20.342Z,60400.93
2018-09-01T08:28:48.518Z,60413.13
2018-09-01T08:31:16.728Z,60436.50
2018-09-01T08:33:44.904Z,60396.87
2018-09-01T08:36:13.083Z,60408.05
2018-09-01T08:38:41.276Z,60428.37
2018-09-01T08:41:09.463Z,60419.23
2018-09-01T08:43:37.811Z,60426.34
2018-09-01T08:46:06.128Z,60416.18
2018-09-01T08:48:34.327Z,60396.87
2018-09-01T08:51:02.528Z,60417.20
2018-09-01T08:53:30.717Z,60411.10
2018-09-01T08:55:58.904Z,60393.82
2018-09-01T08:58:27.099Z,60409.07
2018-09-01T09:00:55.283Z,60406.02
2018-09-01T09:03:23.471Z,60403.98
2018-09-01T09:05:51.645Z,60382.64
2018-09-01T09:08:19.846Z,60414.14
2018-09-01T09:10:48.352Z,60395.86
2018-09-01T09:13:16.528Z,60371.46
2018-09-01T09:15:44.788Z,60374.52
2018-09-01T09:18:12.966Z,60381.63
2018-09-01T09:20:42.582Z,60368.42
2018-09-01T09:23:10.773Z,60364.35
2018-09-01T09:25:38.997Z,60374.52
2018-09-01T09:28:13.191Z,60391.79
2018-09-01T09:30:41.358Z,60362.32
2018-09-01T09:33:10.888Z,60370.45
2018-09-01T09:35:39.123Z,60369.43
2018-09-01T09:38:07.304Z,60355.21
2018-09-01T09:40:35.502Z,60345.04
2018-09-01T09:43:03.702Z,60334.88
2018-09-01T09:45:31.884Z,60339.96
2018-09-01T09:48:00.068Z,60342.00
2018-09-01T09:50:28.255Z,60327.77
2018-09-01T09:52:56.423Z,60329.80
2018-09-01T09:55:24.593Z,60330.82
2018-09-01T09:57:52.782Z,60309.48
2018-09-01T10:00:26.291Z,60288.14
2018-09-01T10:02:54.471Z,60313.54
2018-09-01T10:05:22.682Z,60333.87
2018-09-01T10:07:50.863Z,60330.82
2018-09-01T10:10:19.079Z,60332.85
2018-09-01T10:12:47.273Z,60297.29
2018-09-01T10:15:15.675Z,60297.29
2018-09-01T10:17:43.889Z,60300.34
2018-09-01T10:20:12.170Z,60287.12
2018-09-01T10:22:40.310Z,60307.45
2018-09-01T10:25:08.503Z,60290.17
2018-09-01T10:27:36.697Z,60308.46
2018-09-01T10:30:04.891Z,60283.06
2018-09-01T10:32:33.083Z,60294.24
2018-09-01T10:35:01.276Z,60272.90
2018-09-01T10:37:29.483Z,60289.16
2018-09-01T10:39:57.670Z,60286.11
2018-09-01T10:42:25.859Z,60272.90
2018-09-01T10:44:54.126Z,60260.71
2018-09-01T10:47:22.316Z,60270.87
2018-09-01T10:49:50.497Z,60278.99
2018-09-01T10:52:19.107Z,60275.95
2018-09-01T10:54:47.310Z,60312.53
2018-09-01T10:57:15.482Z,60285.09
2018-09-01T10:59:43.718Z,60326.75
2018-09-01T11:02:11.913Z,60318.62
2018-09-01T11:04:40.127Z,60295.25
2018-09-01T11:07:08.318Z,60288.14
2018-09-01T11:09:36.595Z,60268.83
2018-09-01T11:12:05.053Z,60268.83
2018-09-01T11:14:33.239Z,60291.19
2018-09-01T11:17:01.675Z,60304.40
2018-09-01T11:19:29.954Z,60267.82
2018-09-01T11:21:58.155Z,60273.91
2018-09-01T11:24:26.312Z,60258.67
2018-09-01T11:26:54.487Z,60253.59
2018-09-01T11:29:22.684Z,60269.85
2018-09-01T11:31:50.858Z,60289.16
2018-09-01T11:34:19.069Z,60294.24
2018-09-01T11:36:47.370Z,60285.09
2018-09-01T11:39:17.276Z,60305.41
2018-09-01T11:41:46.412Z,60297.29
2018-09-01T11:44:14.629Z,60274.93
2018-09-01T11:46:42.795Z,60286.11
2018-09-01T11:49:10.975Z,60276.96
2018-09-01T11:51:39.251Z,60256.64
2018-09-01T11:54:07.451Z,60237.33
2018-09-01T11:56:35.644Z,60252.57
2018-09-01T11:59:03.843Z,60255.63
2018-09-01T12:01:32.851Z,60260.71
2018-09-01T12:04:01.098Z,60260.71
2018-09-01T12:06:29.315Z,60241.40
2018-09-01T12:08:57.734Z,60248.51
2018-09-01T12:11:25.767Z,60264.77
2018-09-01T12:13:54.040Z,60270.87
2018-09-01T12:16:22.250Z,60260.71
2018-09-01T12:18:50.585Z,60229.20
2018-09-01T12:21:18.802Z,60252.57
2018-09-01T12:23:47.610Z,60260.71
2018-09-01T12:26:15.895Z,60259.69
2018-09-01T12:28:44.178Z,60248.51
2018-09-01T12:31:12.478Z,60266.80
2018-09-01T12:33:40.808Z,60253.59
2018-09-01T12:36:09.008Z,60276.96
2018-09-01T12:38:37.168Z,60268.83
2018-09-01T12:41:05.355Z,60264.77
2018-09-01T12:43:33.527Z,60268.83
2018-09-01T12:46:01.709Z,60282.04
2018-09-01T12:48:29.878Z,60280.01
2018-09-01T12:50:58.054Z,60268.83
2018-09-01T12:53:26.231Z,60264.77
2018-09-01T12:55:54.435Z,60280.01
2018-09-01T12:58:22.632Z,60251.56
2018-09-01T13:00:51.026Z,60245.46
2018-09-01T13:03:19.198Z,60273.91
2018-09-01T13:05:47.413Z,60269.85
2018-09-01T13:08:15.636Z,60277.98
2018-09-01T13:10:44.508Z,60261.72
2018-09-01T13:13:12.827Z,60278.99
2018-09-01T13:15:41.076Z,60260.71
2018-09-01T13:18:09.267Z,60261.72
2018-09-01T13:20:37.425Z,60228.19
2018-09-01T13:23:05.998Z,60231.24
2018-09-01T13:25:34.169Z,60245.46
2018-09-01T13:28:02.353Z,60257.66
2018-09-01T13:30:31.680Z,60243.43
2018-09-01T13:32:59.881Z,60260.71
2018-09-01T13:35:28.070Z,60258.67
2018-09-01T13:37:56.876Z,60265.79
2018-09-01T13:40:25.160Z,60255.63
2018-09-01T13:42:53.342Z,60270.87
2018-09-01T13:45:21.545Z,60260.71
2018-09-01T13:47:49.899Z,60270.87
2018-09-01T13:50:18.130Z,60246.48
2018-09-01T13:52:46.295Z,60246.48
2018-09-01T13:55:15.185Z,60254.61
2018-09-01T13:57:43.348Z,60262.74
2018-09-01T14:00:12.463Z,60238.35
2018-09-01T14:02:40.648Z,60251.56
2018-09-01T14:05:08.948Z,60260.71
2018-09-01T14:07:37.759Z,60247.49
2018-09-01T14:10:07.243Z,60263.75
2018-09-01T14:12:35.567Z,60250.54
2018-09-01T14:15:05.239Z,60250.54
2018-09-01T14:17:33.454Z,60252.57
2018-09-01T14:20:01.819Z,60253.59
2018-09-01T14:22:30.200Z,60237.33
2018-09-01T14:24:58.855Z,60255.63
2018-09-01T14:27:27.219Z,60257.66
2018-09-01T14:29:57.115Z,60271.88
2018-09-01T14:32:25.298Z,60288.14
2018-09-01T14:34:54.012Z,60280.01
2018-09-01T14:37:22.230Z,60280.01
2018-09-01T14:39:51.290Z,60273.91
2018-09-01T14:42:20.072Z,60255.63
2018-09-01T14:44:48.359Z,60280.01
2018-09-01T14:47:18.126Z,60251.56
2018-09-01T14:49:46.360Z,60249.53
2018-09-01T14:52:15.184Z,60269.85
2018-09-01T14:54:43.386Z,60283.06
2018-09-01T14:57:11.718Z,60260.71
2018-09-01T14:59:41.506Z,60308.46
2018-09-01T15:02:09.855Z,60276.96
2018-09-01T15:04:38.954Z,60276.96
2018-09-01T15:07:09.523Z,60270.87
2018-09-01T15:09:37.966Z,60257.66
2018-09-01T15:12:06.425Z,60308.46
2018-09-01T15:14:36.068Z,60300.34
2018-09-01T15:17:04.380Z,60300.34
2018-09-01T15:19:33.268Z,60285.09
2018-09-01T15:22:02.189Z,60272.90
2018-09-01T15:24:30.551Z,60299.32
2018-09-01T15:26:58.867Z,60285.09
2018-09-01T15:29:28.143Z,60275.95
2018-09-01T15:31:56.456Z,60281.03
2018-09-01T15:34:24.787Z,60280.01
2018-09-01T15:36:53.885Z,60265.79
2018-09-01T15:39:23.705Z,60283.06
2018-09-01T15:41:53.059Z,60267.82
2018-09-01T15:44:21.775Z,60262.74
2018-09-01T15:46:50.211Z,60287.12
2018-09-01T15:49:18.459Z,60290.17
2018-09-01T15:51:47.439Z,60274.93
2018-09-01T15:54:17.088Z,60281.03
2018-09-01T15:56:46.076Z,60296.27
2018-09-01T15:59:14.432Z,60293.22
2018-09-01T16:01:42.693Z,60284.07
2018-09-01T16:04:10.980Z,60265.79
2018-09-01T16:06:40.275Z,60266.80
2018-09-01T16:09:09.084Z,60268.83
2018-09-01T16:11:37.311Z,60275.95
2018-09-01T16:14:05.738Z,60273.91
2018-09-01T16:16:33.995Z,60289.16
2018-09-01T16:19:02.355Z,60268.83
2018-09-01T16:21:30.639Z,60284.07
2018-09-01T16:23:58.813Z,60308.46
2018-09-01T16:26:28.158Z,60301.35
2018-09-01T16:28:56.343Z,60285.09
2018-09-01T16:31:24.661Z,60307.45
2018-09-01T16:33:52.960Z,60286.11
2018-09-01T16:36:21.199Z,60307.45
2018-09-01T16:38:49.876Z,60286.11
2018-09-01T16:41:18.117Z,60301.35
2018-09-01T16:43:46.667Z,60296.27
2018-09-01T16:46:15.935Z,60320.66
2018-09-01T16:48:44.118Z,60314.56
2018-09-01T16:51:12.427Z,60298.30
2018-09-01T16:53:40.674Z,60278.99
2018-09-01T16:56:09.007Z,60297.29
2018-09-01T16:58:37.324Z,60301.35
2018-09-01T17:01:06.164Z,60305.41
2018-09-01T17:03:34.274Z,60306.43
2018-09-01T17:06:03.035Z,60290.17
2018-09-01T17:08:31.203Z,60313.54
2018-09-01T17:10:59.394Z,60307.45
2018-09-01T17:13:27.577Z,60315.57
2018-09-01T17:15:55.767Z,60298.30
2018-09-01T17:18:23.975Z,60321.67
2018-09-01T17:20:52.203Z,60319.64
2018-09-01T17:23:20.315Z,60303.38
2018-09-01T17:25:48.507Z,60302.37
2018-09-01T17:28:16.674Z,60294.24
2018-09-01T17:30:44.876Z,60318.62
2018-09-01T17:33:13.055Z,60307.45
2018-09-01T17:35:41.240Z,60297.29
2018-09-01T17:38:09.410Z,60303.38
2018-09-01T17:40:37.596Z,60325.74
2018-09-01T17:43:05.947Z,60310.50
2018-09-01T17:45:34.115Z,60312.53
2018-09-01T17:48:02.283Z,60308.46
2018-09-01T17:50:30.459Z,60320.66
2018-09-01T17:52:58.628Z,60333.87
2018-09-01T17:55:26.796Z,60311.51
2018-09-01T17:57:54.984Z,60302.37
2018-09-01T18:00:23.199Z,60340.98
2018-09-01T18:02:51.379Z,60327.77
2018-09-01T18:05:19.564Z,60313.54
2018-09-01T18:07:47.735Z,60338.95
2018-09-01T18:10:15.924Z,60325.74
2018-09-01T18:12:44.199Z,60329.80
2018-09-01T18:15:12.363Z,60317.61
2018-09-01T18:17:40.559Z,60344.03
2018-09-01T18:20:08.744Z,60325.74
2018-09-01T18:22:36.916Z,60350.12
2018-09-01T18:25:05.140Z,60337.93
2018-09-01T18:27:33.438Z,60345.04
2018-09-01T18:30:01.756Z,60334.88
2018-09-01T18:32:30.090Z,60325.74
2018-09-01T18:34:58.354Z,60340.98
2018-09-01T18:37:26.508Z,60333.87
2018-09-01T18:39:54.728Z,60308.46
2018-09-01T18:42:23.025Z,60358.25
2018-09-01T18:44:51.413Z,60359.27
2018-09-01T18:47:19.627Z,60323.71
2018-09-01T18:49:49.523Z,60329.80
2018-09-01T18:52:17.786Z,60329.80
2018-09-01T18:54:46.267Z,60332.85
2018-09-01T18:57:14.470Z,60355.21
2018-09-01T18:59:43.822Z,60360.29
2018-09-01T19:02:12.295Z,60352.16
2018-09-01T19:04:40.931Z,60366.39
2018-09-01T19:07:10.831Z,60343.01
2018-09-01T19:09:39.319Z,60333.87
2018-09-01T19:12:07.547Z,60357.24
2018-09-01T19:14:35.801Z,60351.14
2018-09-01T19:17:04.068Z,60343.01
2018-09-01T19:19:33.321Z,60363.34
2018-09-01T19:22:02.366Z,60339.96
2018-09-01T19:24:30.675Z,60374.52
2018-09-01T19:26:58.934Z,60331.84
2018-09-01T19:29:27.142Z,60361.30
2018-09-01T19:31:55.422Z,60343.01
2018-09-01T19:34:23.763Z,60366.39
2018-09-01T19:36:52.043Z,60359.27
2018-09-01T19:39:20.972Z,60367.40
2018-09-01T19:41:49.416Z,60355.21
2018-09-01T19:44:17.618Z,60377.56
2018-09-01T19:46:45.811Z,60390.77
2018-09-01T19:49:14.004Z,60378.58
2018-09-01T19:51:42.247Z,60352.16
2018-09-01T19:54:10.967Z,60352.16
2018-09-01T19:56:39.248Z,60376.55
2018-09-01T19:59:07.444Z,60360.29
2018-09-01T20:01:35.758Z,60377.56
2018-09-01T20:04:04.003Z,60375.53
2018-09-01T20:06:32.246Z,60356.22
2018-09-01T20:09:00.424Z,60366.39
2018-09-01T20:11:28.675Z,60345.04
2018-09-01T20:13:58.463Z,60375.53
2018-09-01T20:16:27.022Z,60362.32
2018-09-01T20:18:55.207Z,60354.19
2018-09-01T20:21:24.471Z,60367.40
2018-09-01T20:23:52.788Z,60352.16
2018-09-01T20:26:21.057Z,60381.63
2018-09-01T20:28:49.464Z,60361.30
2018-09-01T20:31:17.659Z,60380.61
2018-09-01T20:33:45.829Z,60375.53
2018-09-01T20:36:15.484Z,60373.50
2018-09-01T20:38:43.915Z,60377.56
2018-09-01T20:41:12.108Z,60366.39
2018-09-01T20:43:40.267Z,60379.59
2018-09-01T20:46:08.448Z,60388.74
2018-09-01T20:48:36.632Z,60388.74
2018-09-01T20:51:04.839Z,60386.71
2018-09-01T20:53:33.196Z,60395.86
2018-09-01T20:56:01.540Z,60371.46
2018-09-01T20:58:29.737Z,60383.66
2018-09-01T21:00:57.935Z,60363.34
2018-09-01T21:03:26.115Z,60367.40
2018-09-01T21:05:54.313Z,60364.35
2018-09-01T21:08:22.511Z,60388.74
2018-09-01T21:10:50.701Z,60377.56
2018-09-01T21:13:18.890Z,60384.68
2018-09-01T21:15:47.067Z,60374.52
2018-09-01T21:18:15.256Z,60373.50
2018-09-01T21:20:43.446Z,60373.50
2018-09-01T21:23:11.624Z,60395.86
2018-09-01T21:25:39.807Z,60402.97
2018-09-01T21:28:07.991Z,60376.55
2018-09-01T21:30:36.166Z,60383.66
2018-09-01T21:33:04.359Z,60385.69
2018-09-01T21:35:32.555Z,60390.77
2018-09-01T21:38:00.736Z,60385.69
2018-09-01T21:40:28.914Z,60390.77
2018-09-01T21:42:57.108Z,60387.72
2018-09-01T21:45:25.292Z,60403.98
2018-09-01T21:47:53.484Z,60392.80
2018-09-01T21:50:21.663Z,60373.50
2018-09-01T21:52:49.860Z,60401.95
2018-09-01T21:55:18.051Z,60407.03
2018-09-01T21:57:46.376Z,60378.58
2018-09-01T22:00:14.575Z,60384.68
2018-09-01T22:02:42.769Z,60391.79
2018-09-01T22:05:17.043Z,60396.87
2018-09-01T22:07:45.383Z,60387.72
2018-09-01T22:10:13.572Z,60389.76
2018-09-01T22:12:41.796Z,60383.66
2018-09-01T22:15:10.008Z,60385.69
2018-09-01T22:17:38.178Z,60379.59
2018-09-01T22:20:06.389Z,60384.68
2018-09-01T22:22:34.595Z,60362.32
2018-09-01T22:25:02.782Z,60385.69
2018-09-01T22:27:30.950Z,60392.80
2018-09-01T22:29:59.164Z,60399.92
2018-09-01T22:32:27.343Z,60390.77
2018-09-01T22:34:55.588Z,60366.39
2018-09-01T22:37:24.071Z,60379.59
2018-09-01T22:39:52.252Z,60380.61
2018-09-01T22:42:20.436Z,60383.66
2018-09-01T22:44:48.637Z,60398.90
2018-09-01T22:47:19.382Z,60370.45
2018-09-01T22:49:47.597Z,60392.80
2018-09-01T22:52:15.826Z,60381.63
2018-09-01T22:54:44.011Z,60370.45
2018-09-01T22:57:12.180Z,60396.87
2018-09-01T22:59:40.364Z,60380.61
2018-09-01T23:02:08.616Z,60369.43
2018-09-01T23:04:36.815Z,60386.71
2018-09-01T23:07:05.102Z,60397.89
2018-09-01T23:09:33.275Z,60377.56
2018-09-01T23:12:01.467Z,60391.79
2018-09-01T23:14:29.656Z,60381.63
2018-09-01T23:16:57.824Z,60411.10
2018-09-01T23:19:25.998Z,60373.50
2018-09-01T23:21:54.211Z,60412.11
2018-09-01T23:24:22.390Z,60384.68
2018-09-01T23:26:50.590Z,60367.40
2018-09-01T23:29:18.898Z,60381.63
2018-09-01T23:31:47.103Z,60399.92
2018-09-01T23:34:15.293Z,60412.11
2018-09-01T23:36:43.487Z,60382.64
2018-09-01T23:39:12.375Z,60403.98
2018-09-01T23:41:40.844Z,60380.61
2018-09-01T23:44:09.345Z,60386.71
2018-09-01T23:46:37.567Z,60402.97
2018-09-01T23:49:05.791Z,60409.07
2018-09-01T23:51:34.028Z,60365.37
2018-09-01T23:54:02.228Z,60377.56
2018-09-01T23:56:30.450Z,60402.97
2018-09-01T23:58:58.754Z,60406.02
